Time;durP1;ratioP1;P1;durP2;ratioP2;P2;SDS_P1;SDS_P2;PMS_P1;PMS_P2;Temp;Humidity;BMP_temperature;BMP_pressure;BME280_temperature;BME280_humidity;BME280_pressure;Samples;Min_cycle;Max_cycle;Signal;HPM_P1;HPM_P2
2022/05/22 00:02:13;;;;;;;1.60;0.90;;;;;;;14.39;55.89;98248.02;1716685;83;20900;-66
2022/05/22 00:04:38;;;;;;;3.70;0.98;;;;;;;14.41;56.00;98245.97;1716030;83;21190;-66
2022/05/22 00:07:08;;;;;;;1.02;0.60;;;;;;;14.44;55.99;98242.84;1715347;83;21572;-67
2022/05/22 00:09:36;;;;;;;1.85;0.98;;;;;;;14.48;56.10;98240.00;1717004;83;20983;-68
2022/05/22 00:12:04;;;;;;;1.30;0.70;;;;;;;14.50;56.16;98235.23;1716520;83;21434;-67
2022/05/22 00:14:31;;;;;;;7.62;1.57;;;;;;;14.53;56.18;98240.66;1718719;83;20848;-67
2022/05/22 00:16:59;;;;;;;2.33;1.15;;;;;;;14.55;56.16;98234.04;1727544;82;21246;-67
2022/05/22 00:19:27;;;;;;;2.12;0.90;;;;;;;14.57;56.14;98235.96;1719543;83;20967;-67
2022/05/22 00:21:54;;;;;;;1.47;0.80;;;;;;;14.59;56.19;98231.22;1719490;83;20876;-67
2022/05/22 00:24:25;;;;;;;1.32;1.02;;;;;;;14.61;56.22;98231.81;1719458;83;20923;-67
2022/05/22 00:26:53;;;;;;;2.02;0.85;;;;;;;14.61;56.30;98233.15;1715466;83;20955;-65
2022/05/22 00:29:20;;;;;;;2.30;0.90;;;;;;;14.62;56.29;98221.41;1716668;83;21133;-67
2022/05/22 00:31:47;;;;;;;1.42;1.00;;;;;;;14.59;56.38;98220.52;1717203;83;20990;-67
2022/05/22 00:34:14;;;;;;;2.30;1.10;;;;;;;14.59;56.49;98225.05;1718480;83;21382;-67
2022/05/22 00:36:41;;;;;;;1.82;0.85;;;;;;;14.54;56.65;98216.37;1719551;83;20907;-66
2022/05/22 00:39:07;;;;;;;1.67;0.88;;;;;;;14.50;56.84;98219.70;1727145;82;20954;-66
2022/05/22 00:41:35;;;;;;;1.00;0.90;;;;;;;14.44;56.99;98218.77;1717335;83;21255;-67
2022/05/22 00:44:02;;;;;;;1.00;0.70;;;;;;;14.40;57.30;98220.23;1715473;83;20895;-67
2022/05/22 00:46:33;;;;;;;1.02;0.80;;;;;;;14.36;57.47;98223.59;1716607;83;20982;-67
2022/05/22 00:49:18;;;;;;;2.92;1.65;;;;;;;14.32;57.64;98219.20;1715618;83;20951;-66
2022/05/22 00:52:01;;;;;;;1.10;1.00;;;;;;;14.29;57.86;98212.13;1716473;83;20944;-66
2022/05/22 00:54:48;;;;;;;2.15;0.90;;;;;;;14.23;58.08;98215.97;1717005;83;21532;-66
2022/05/22 00:57:26;;;;;;;1.98;0.80;;;;;;;14.20;58.28;98220.45;1716693;83;20939;-68
2022/05/22 01:00:00;;;;;;;1.07;0.80;;;;;;;14.13;58.49;98214.34;1715569;83;21045;-67
2022/05/22 01:02:27;;;;;;;1.05;0.68;;;;;;;14.11;58.78;98208.92;1716583;83;20947;-67
2022/05/22 01:04:54;;;;;;;1.07;0.80;;;;;;;14.05;59.07;98204.48;1716567;83;20856;-66
2022/05/22 01:07:20;;;;;;;0.95;0.72;;;;;;;14.05;59.25;98202.60;1716604;83;21120;-66
2022/05/22 01:09:47;;;;;;;2.50;0.78;;;;;;;14.03;59.41;98203.87;1716251;83;20912;-66
2022/05/22 01:12:21;;;;;;;1.25;0.90;;;;;;;14.00;59.51;98203.80;1712261;83;21445;-67
2022/05/22 01:14:51;;;;;;;1.50;1.00;;;;;;;13.98;59.72;98197.86;1719404;83;20994;-67
2022/05/22 01:17:17;;;;;;;1.02;0.75;;;;;;;13.98;59.89;98197.03;1718048;82;21049;-65
2022/05/22 01:20:00;;;;;;;1.47;0.65;;;;;;;13.95;60.02;98200.97;1718651;83;21140;-67
2022/05/22 01:22:28;;;;;;;1.80;1.00;;;;;;;13.91;60.25;98199.80;1716617;83;20939;-67
2022/05/22 01:24:55;;;;;;;1.87;0.90;;;;;;;13.89;60.46;98205.06;1716636;83;21433;-67
2022/05/22 01:27:22;;;;;;;2.27;1.10;;;;;;;13.87;60.63;98192.45;1716600;83;20919;-66
2022/05/22 01:30:16;;;;;;;2.10;1.17;;;;;;;13.83;60.84;98192.58;1715938;83;21085;-67
2022/05/22 01:32:46;;;;;;;1.40;1.00;;;;;;;13.77;61.07;98190.27;1709486;83;21151;-67
2022/05/22 01:35:17;;;;;;;1.70;1.15;;;;;;;13.70;61.41;98186.86;1716549;83;20896;-66
2022/05/22 01:37:44;;;;;;;3.12;1.45;;;;;;;13.65;61.74;98185.88;1716724;83;20899;-66
2022/05/22 01:40:13;;;;;;;2.05;1.42;;;;;;;13.60;62.10;98185.21;1716776;83;20919;-66
2022/05/22 01:42:41;;;;;;;2.05;1.07;;;;;;;13.56;62.22;98178.14;1716488;83;21028;-66
2022/05/22 01:45:13;;;;;;;3.37;1.15;;;;;;;13.54;62.43;98174.88;1716785;83;21122;-67
2022/05/22 01:47:40;;;;;;;1.52;1.10;;;;;;;13.55;62.63;98177.86;1685120;83;20955;-66
2022/05/22 01:50:09;;;;;;;2.08;1.30;;;;;;;13.55;62.89;98172.52;1716472;83;21074;-66
2022/05/22 01:52:36;;;;;;;2.72;1.50;;;;;;;13.57;63.08;98176.30;1714497;83;20994;-66
2022/05/22 01:55:06;;;;;;;1.50;1.40;;;;;;;13.59;63.25;98171.03;1716588;83;20927;-66
2022/05/22 01:57:33;;;;;;;1.25;1.15;;;;;;;13.63;63.29;98169.26;1716562;83;21097;-66
2022/05/22 02:00:01;;;;;;;1.20;1.10;;;;;;;13.67;63.41;98165.09;1717490;83;20961;-66
2022/05/22 02:02:29;;;;;;;1.50;1.20;;;;;;;13.68;63.53;98167.56;1716619;83;20979;-66
2022/05/22 02:04:57;;;;;;;1.85;1.45;;;;;;;13.72;63.64;98162.57;1716472;83;21514;-66
2022/05/22 02:10:11;;;;;;;2.08;1.40;;;;;;;13.80;63.58;98164.44;1708049;83;20944;-67
2022/05/22 02:12:38;;;;;;;1.87;1.45;;;;;;;13.83;63.55;98169.34;1716630;83;20994;-67
2022/05/22 02:15:08;;;;;;;1.70;1.20;;;;;;;13.86;63.59;98164.89;1704164;83;21570;-65
2022/05/22 02:17:35;;;;;;;1.98;1.50;;;;;;;13.89;63.51;98166.30;1707575;83;20904;-68
2022/05/22 02:20:03;;;;;;;1.67;1.45;;;;;;;13.94;63.50;98163.78;1710048;83;20959;-67
2022/05/22 02:22:44;;;;;;;2.15;1.35;;;;;;;13.93;63.54;98162.13;1708146;83;20929;-67
2022/05/22 02:25:13;;;;;;;1.87;1.70;;;;;;;13.95;63.59;98162.72;1705876;83;20943;-67
2022/05/22 02:27:39;;;;;;;3.30;1.82;;;;;;;13.96;63.63;98159.84;1700347;83;21509;-66
2022/05/22 02:30:08;;;;;;;1.67;1.30;;;;;;;13.98;63.65;98167.11;1719709;83;20982;-66
2022/05/22 02:32:37;;;;;;;1.75;1.55;;;;;;;13.98;63.72;98160.94;1662374;83;20970;-66
2022/05/22 02:35:07;;;;;;;1.98;1.27;;;;;;;14.02;63.66;98160.81;1660690;83;21470;-67
2022/05/22 02:37:48;;;;;;;2.12;1.70;;;;;;;14.02;63.74;98159.47;1710938;83;20884;-66
2022/05/22 02:40:18;;;;;;;1.75;1.60;;;;;;;14.01;63.80;98159.98;1709503;83;21038;-67
2022/05/22 02:42:51;;;;;;;1.57;1.47;;;;;;;14.04;63.86;98156.05;1711304;83;20951;-66
2022/05/22 02:45:23;;;;;;;1.87;1.67;;;;;;;14.06;63.83;98147.27;1711253;83;21509;-67
2022/05/22 02:47:51;;;;;;;1.98;1.77;;;;;;;14.10;63.88;98141.79;1711584;83;22184;-65
2022/05/22 02:50:20;;;;;;;2.72;1.72;;;;;;;14.09;63.79;98148.99;1719778;83;20983;-67
2022/05/22 02:52:46;;;;;;;2.40;1.80;;;;;;;14.11;63.79;98155.44;1709776;83;20983;-67
2022/05/22 02:55:16;;;;;;;2.15;1.60;;;;;;;14.09;63.87;98158.34;1709143;83;20960;-67
2022/05/22 02:57:44;;;;;;;2.52;1.87;;;;;;;14.13;63.83;98146.70;1708469;83;20989;-67
2022/05/22 03:00:18;;;;;;;1.87;1.57;;;;;;;14.17;63.77;98150.02;1708471;83;21092;-66
2022/05/22 03:02:48;;;;;;;1.75;1.50;;;;;;;14.17;63.82;98146.02;1708573;83;21486;-66
2022/05/22 03:05:14;;;;;;;2.05;1.45;;;;;;;14.23;63.76;98146.98;1708598;83;20912;-66
2022/05/22 03:07:42;;;;;;;3.35;2.37;;;;;;;14.23;63.68;98146.98;1708505;83;20947;-66
2022/05/22 03:10:12;;;;;;;4.03;1.60;;;;;;;14.29;63.63;98141.25;1704088;83;20999;-66
2022/05/22 03:12:39;;;;;;;1.45;1.27;;;;;;;14.34;63.50;98146.22;1711443;83;21923;-66
2022/05/22 03:15:08;;;;;;;1.75;1.65;;;;;;;14.36;63.43;98144.16;1715880;83;20935;-66
2022/05/22 03:17:37;;;;;;;1.40;1.30;;;;;;;14.42;63.21;98135.20;1716519;83;21034;-67
2022/05/22 03:20:07;;;;;;;2.72;1.30;;;;;;;14.46;62.99;98134.24;1716636;83;20911;-66
2022/05/22 03:22:35;;;;;;;2.55;1.30;;;;;;;14.47;62.87;98138.02;1716590;83;20892;-65
2022/05/22 03:25:04;;;;;;;1.60;1.50;;;;;;;14.51;62.77;98145.90;1706666;83;21445;-66
2022/05/22 03:27:31;;;;;;;1.40;1.30;;;;;;;14.52;62.63;98141.37;1716232;83;20932;-65
2022/05/22 03:29:58;;;;;;;1.37;1.27;;;;;;;14.54;62.60;98142.77;1716617;83;20940;-67
2022/05/22 03:32:25;;;;;;;7.75;1.30;;;;;;;14.54;62.57;98136.09;1719709;83;20938;-66
2022/05/22 03:34:52;;;;;;;3.17;1.30;;;;;;;14.53;63.58;98139.80;1719133;83;20931;-66
2022/05/22 03:37:19;;;;;;;1.82;1.30;;;;;;;14.54;63.69;98134.75;1717458;83;21146;-67
2022/05/22 03:39:47;;;;;;;1.07;1.07;;;;;;;14.52;63.93;98132.00;1716672;83;21014;-66
2022/05/22 03:42:13;;;;;;;1.87;1.40;;;;;;;14.54;64.05;98136.09;1716802;83;20940;-66
2022/05/22 03:44:41;;;;;;;2.37;1.52;;;;;;;14.56;64.20;98136.67;1716713;83;21549;-67
2022/05/22 03:47:08;;;;;;;3.05;1.25;;;;;;;14.59;64.35;98129.53;1717154;83;21021;-66
2022/05/22 03:49:36;;;;;;;1.82;1.55;;;;;;;14.61;64.45;98132.78;1718321;83;21360;-66
2022/05/22 03:52:04;;;;;;;1.80;1.30;;;;;;;14.64;64.42;98132.33;1716885;83;21425;-67
2022/05/22 03:54:30;;;;;;;1.75;1.42;;;;;;;14.68;64.29;98130.81;1685389;83;20962;-66
2022/05/22 03:56:59;;;;;;;2.50;1.60;;;;;;;14.71;64.13;98125.53;1711138;83;20979;-66
2022/05/22 03:59:29;;;;;;;1.72;1.55;;;;;;;14.69;64.14;98131.13;1716047;83;20987;-65
2022/05/22 04:01:56;;;;;;;1.40;1.30;;;;;;;14.71;64.00;98125.02;1716581;83;21078;-66
2022/05/22 04:04:23;;;;;;;2.70;1.50;;;;;;;14.69;63.99;98131.13;1716509;83;20931;-66
2022/05/22 04:06:50;;;;;;;1.85;1.42;;;;;;;14.68;64.04;98128.66;1716605;83;20943;-65
2022/05/22 04:09:18;;;;;;;1.67;1.32;;;;;;;14.67;63.61;98128.38;1718987;83;20951;-65
2022/05/22 04:11:56;;;;;;;2.15;1.52;;;;;;;14.67;63.78;98121.69;1709294;83;20936;-65
2022/05/22 04:14:23;;;;;;;1.80;1.42;;;;;;;14.68;64.15;98136.17;1716725;83;21823;-66
2022/05/22 04:16:52;;;;;;;1.92;1.50;;;;;;;14.68;64.41;98126.80;1708005;83;21077;-66
2022/05/22 04:19:18;;;;;;;1.17;1.07;;;;;;;14.66;64.86;98128.90;1716720;83;20999;-66
2022/05/22 04:21:46;;;;;;;1.67;1.10;;;;;;;14.64;65.50;98130.99;1717271;83;21042;-66
2022/05/22 04:27:06;;;;;;;1.50;1.40;;;;;;;14.60;66.48;98133.81;1721772;83;21165;-67
2022/05/22 04:29:34;;;;;;;4.12;1.02;;;;;;;14.59;66.54;98133.55;1715883;83;21041;-66
2022/05/22 04:32:02;;;;;;;2.45;1.27;;;;;;;14.60;66.66;98138.38;1714488;83;21592;-65
2022/05/22 04:34:33;;;;;;;1.67;1.55;;;;;;;14.63;67.14;98141.91;1704986;83;21437;-67
2022/05/22 04:37:04;;;;;;;2.12;1.15;;;;;;;14.64;67.15;98142.22;1718493;83;21421;-67
2022/05/22 04:39:36;;;;;;;1.30;1.10;;;;;;;14.71;67.08;98134.37;1715712;83;21383;-66
2022/05/22 04:42:05;;;;;;;2.75;1.15;;;;;;;14.83;67.06;98139.23;1716442;83;20955;-67
2022/05/22 04:44:33;;;;;;;5.50;1.55;;;;;;;15.17;67.66;98139.54;1716593;83;21460;-66
2022/05/22 04:47:20;;;;;;;1.55;1.15;;;;;;;15.58;67.38;98139.46;1674311;83;20979;-66
2022/05/22 04:49:50;;;;;;;1.85;0.90;;;;;;;16.06;65.55;98135.11;1712064;83;20962;-66
2022/05/22 04:52:16;;;;;;;1.05;0.90;;;;;;;16.38;64.19;98138.16;1685296;83;21210;-67
2022/05/22 04:54:46;;;;;;;2.20;1.45;;;;;;;16.56;62.61;98143.37;1718753;83;20887;-67
2022/05/22 04:57:13;;;;;;;1.37;0.88;;;;;;;16.66;61.03;98139.52;1727567;83;21329;-66
2022/05/22 04:59:41;;;;;;;0.88;0.70;;;;;;;16.65;60.08;98151.33;1689049;83;21042;-67
2022/05/22 05:02:09;;;;;;;1.37;0.68;;;;;;;16.61;59.71;98140.77;1711386;83;21002;-67
2022/05/22 05:04:55;;;;;;;2.37;0.65;;;;;;;16.59;59.46;98145.58;1715061;83;21169;-66
2022/05/22 05:07:23;;;;;;;1.77;1.45;;;;;;;16.48;58.26;98151.77;1716203;83;20947;-66
2022/05/22 05:09:54;;;;;;;1.65;1.20;;;;;;;16.49;58.30;98146.18;1700538;83;20912;-66
2022/05/22 05:12:22;;;;;;;1.17;1.07;;;;;;;16.54;58.69;98124.01;1714755;83;20946;-67
2022/05/22 05:14:49;;;;;;;0.80;0.80;;;;;;;16.59;57.27;98145.05;1687421;84;21081;-67
2022/05/22 05:17:17;;;;;;;2.33;0.80;;;;;;;16.60;57.22;98147.22;1700339;84;21765;-69
2022/05/22 05:19:45;;;;;;;1.10;0.60;;;;;;;16.94;57.07;98149.43;1700722;84;20942;-66
2022/05/22 05:22:12;;;;;;;0.85;0.70;;;;;;;17.52;56.29;98149.03;1698777;84;21097;-65
2022/05/22 05:24:40;;;;;;;2.30;0.95;;;;;;;18.34;54.97;98150.69;1700801;84;21499;-66
2022/05/22 05:27:09;;;;;;;3.80;3.45;;;;;;;18.98;53.38;98146.81;1700835;84;21515;-67
2022/05/22 05:29:36;;;;;;;2.85;1.72;;;;;;;19.61;51.64;98140.56;1683074;85;21154;-66
2022/05/22 05:32:05;;;;;;;1.40;1.30;;;;;;;20.12;49.98;98141.67;1710107;82;20886;-66
2022/05/22 05:34:34;;;;;;;2.65;1.20;;;;;;;20.61;48.08;98132.14;1714906;82;20968;-66
2022/05/22 05:37:04;;;;;;;2.30;0.80;;;;;;;20.85;47.20;98132.45;1711328;82;20974;-67
2022/05/22 05:39:35;;;;;;;1.55;0.50;;;;;;;20.96;46.22;98137.34;1695806;84;21025;-64
2022/05/22 05:42:24;;;;;;;2.30;2.10;;;;;;;20.83;45.56;98121.90;1697334;84;21927;-68
2022/05/22 05:44:51;;;;;;;2.60;1.80;;;;;;;20.49;45.78;98132.91;1698012;84;20974;-66
2022/05/22 05:47:22;;;;;;;1.85;0.88;;;;;;;20.13;45.65;98127.89;1696536;84;20962;-67
2022/05/22 05:50:00;;;;;;;1.37;0.80;;;;;;;19.68;45.95;98137.12;1697115;84;21234;-68
2022/05/22 05:52:28;;;;;;;1.20;0.75;;;;;;;19.61;46.36;98140.56;1695615;84;20942;-68
2022/05/22 05:54:56;;;;;;;1.25;0.50;;;;;;;19.57;47.11;98124.11;1698374;84;21148;-69
2022/05/22 05:57:29;;;;;;;1.20;0.70;;;;;;;19.87;46.07;98134.78;1695767;84;21030;-68
2022/05/22 05:59:56;;;;;;;0.57;0.57;;;;;;;20.31;45.74;98130.16;1697468;84;21017;-68
2022/05/22 06:02:23;;;;;;;1.07;0.60;;;;;;;20.43;45.58;98111.56;1696719;84;21086;-68
2022/05/22 06:04:51;;;;;;;1.30;0.50;;;;;;;20.72;44.24;98120.28;1697791;84;21057;-68
2022/05/22 06:07:17;;;;;;;1.80;0.90;;;;;;;20.69;43.36;98120.81;1696482;84;21891;-67
2022/05/22 06:09:45;;;;;;;0.47;0.47;;;;;;;20.54;43.46;98126.19;1697746;84;21065;-69
2022/05/22 06:12:16;;;;;;;0.37;0.37;;;;;;;20.26;43.14;98130.67;1695966;84;21599;-68
2022/05/22 06:15:00;;;;;;;0.55;0.50;;;;;;;19.90;43.57;98128.86;1706820;82;20943;-67
2022/05/22 06:17:35;;;;;;;0.57;0.50;;;;;;;19.55;44.10;98141.63;1727048;82;21540;-69
2022/05/22 06:20:03;;;;;;;1.30;1.20;;;;;;;19.25;44.59;98136.78;1717384;83;21165;-69
2022/05/22 06:22:33;;;;;;;2.52;0.90;;;;;;;19.49;44.83;98141.30;1704934;83;20967;-69
2022/05/22 06:25:04;;;;;;;2.17;1.67;;;;;;;19.95;44.15;98131.58;1716017;83;21027;-68
2022/05/22 06:27:36;;;;;;;2.47;1.17;;;;;;;20.70;43.49;98129.73;1714784;83;21457;-69
2022/05/22 06:30:10;;;;;;;3.83;0.80;;;;;;;21.72;41.40;98116.50;1713903;83;21019;-69
2022/05/22 06:32:52;;;;;;;0.75;0.65;;;;;;;22.72;39.89;98119.35;1716608;83;21100;-68
2022/05/22 06:35:21;;;;;;;0.75;0.68;;;;;;;23.89;37.28;98127.58;1723544;83;21049;-67
2022/05/22 06:37:59;;;;;;;1.10;0.85;;;;;;;24.72;35.71;98117.58;1724064;82;20986;-70
2022/05/22 06:40:28;;;;;;;0.50;0.50;;;;;;;25.48;34.47;98121.32;1723320;82;21050;-69
2022/05/22 06:42:59;;;;;;;1.42;0.50;;;;;;;26.35;32.90;98122.12;1714951;82;21022;-69
2022/05/22 06:45:33;;;;;;;0.33;0.30;;;;;;;26.92;30.37;98121.97;1670631;83;21266;-68
2022/05/22 06:47:59;;;;;;;0.68;0.45;;;;;;;27.20;30.03;98124.58;1709781;83;21472;-67
2022/05/22 06:50:45;;;;;;;0.47;0.42;;;;;;;27.55;29.20;98120.44;1712563;83;21042;-69
2022/05/22 06:53:30;;;;;;;0.93;0.40;;;;;;;27.22;29.25;98122.37;1717286;83;20989;-69
2022/05/22 06:56:05;;;;;;;0.62;0.40;;;;;;;27.01;29.11;98114.41;1703745;83;20876;-63
2022/05/22 06:58:33;;;;;;;0.47;0.40;;;;;;;26.66;29.53;98117.36;1623574;83;21333;-68
2022/05/22 07:01:18;;;;;;;0.35;0.35;;;;;;;25.90;30.57;98123.00;1716669;83;20919;-68
2022/05/22 07:03:46;;;;;;;0.65;0.40;;;;;;;25.19;30.90;98128.86;1714619;83;21014;-69
2022/05/22 07:06:32;;;;;;;1.82;0.60;;;;;;;24.60;31.45;98138.16;1718506;83;20872;-68
2022/05/22 07:09:17;;;;;;;0.33;0.30;;;;;;;23.83;32.29;98131.98;1717875;83;21009;-69
2022/05/22 07:12:04;;;;;;;0.62;0.60;;;;;;;23.17;32.93;98133.13;1676665;84;21165;-65
2022/05/22 07:14:35;;;;;;;1.20;1.10;;;;;;;22.57;33.89;98134.33;1723256;81;21092;-67
2022/05/22 07:17:05;;;;;;;2.47;1.10;;;;;;;22.71;33.97;98135.34;1717325;83;21046;-68
2022/05/22 07:19:34;;;;;;;1.02;0.72;;;;;;;22.49;34.46;98126.23;1717686;83;21063;-66
2022/05/22 07:22:06;;;;;;;0.70;0.68;;;;;;;22.47;34.67;98127.61;1713133;83;21061;-67
2022/05/22 07:24:37;;;;;;;1.65;0.50;;;;;;;22.67;34.68;98124.80;1692408;83;21260;-67
2022/05/22 07:27:12;;;;;;;0.55;0.50;;;;;;;22.82;34.08;98112.50;1715356;83;20947;-67
2022/05/22 07:29:49;;;;;;;3.45;0.50;;;;;;;22.71;33.99;98136.69;1628375;86;21033;-68
2022/05/22 07:32:20;;;;;;;5.58;0.50;;;;;;;22.54;34.40;98136.23;1732295;81;21058;-69
2022/05/22 07:35:07;;;;;;;1.30;0.50;;;;;;;22.55;34.13;98118.33;1719646;83;20994;-67
2022/05/22 07:37:40;;;;;;;0.50;0.42;;;;;;;22.56;33.62;98123.20;1716739;83;21683;-66
2022/05/22 07:40:25;;;;;;;1.60;1.50;;;;;;;22.23;34.33;98121.22;1725577;83;20884;-69
2022/05/22 07:42:54;;;;;;;0.90;0.90;;;;;;;22.13;34.98;98116.09;1712855;83;20943;-67
2022/05/22 07:45:38;;;;;;;0.85;0.50;;;;;;;21.96;35.52;98122.93;1716727;83;20998;-69
2022/05/22 07:48:25;;;;;;;0.50;0.30;;;;;;;21.81;35.63;98120.25;1713541;83;20939;-70
2022/05/22 07:51:01;;;;;;;1.07;0.60;;;;;;;21.15;35.91;98128.98;1713814;82;21964;-68
2022/05/22 07:53:46;;;;;;;0.50;0.50;;;;;;;21.15;35.91;98128.98;1711693;83;21409;-66
2022/05/22 07:56:14;;;;;;;0.53;0.45;;;;;;;20.69;36.27;98129.45;1709658;83;20991;-66
2022/05/22 07:58:46;;;;;;;0.75;0.30;;;;;;;20.20;36.46;98138.47;1712832;81;21074;-66
2022/05/22 08:01:21;;;;;;;1.55;0.40;;;;;;;19.82;37.16;98142.84;1717672;83;21508;-67
2022/05/22 08:03:56;;;;;;;1.10;0.98;;;;;;;19.64;37.38;98150.84;1715099;83;21165;-68
2022/05/22 08:06:39;;;;;;;1.42;1.30;;;;;;;19.47;38.07;98148.85;1714005;83;20978;-66
2022/05/22 08:09:12;;;;;;;0.78;0.72;;;;;;;19.47;38.16;98146.16;1716845;83;21489;-66
2022/05/22 08:11:40;;;;;;;1.20;0.60;;;;;;;19.35;38.46;98146.30;1715578;83;20924;-64
2022/05/22 08:14:09;;;;;;;1.07;0.40;;;;;;;19.35;38.48;98148.17;1711804;83;21074;-68
2022/05/22 08:16:38;;;;;;;0.42;0.42;;;;;;;19.26;38.70;98135.72;1716035;83;21786;-68
2022/05/22 08:19:06;;;;;;;0.30;0.30;;;;;;;19.20;38.63;98150.22;1709608;83;21508;-68
2022/05/22 08:21:34;;;;;;;0.95;0.40;;;;;;;18.99;38.93;98148.42;1689933;83;20995;-67
2022/05/22 08:24:03;;;;;;;0.80;0.42;;;;;;;18.79;39.23;98145.02;1712689;82;20991;-67
2022/05/22 08:26:32;;;;;;;0.95;0.45;;;;;;;18.68;39.85;98157.28;1718618;83;21472;-69
2022/05/22 08:28:59;;;;;;;1.95;0.40;;;;;;;18.57;39.95;98159.58;1726683;82;22112;-66
2022/05/22 08:31:26;;;;;;;0.28;0.23;;;;;;;18.44;40.06;98166.14;1714832;83;21830;-68
2022/05/22 08:33:54;;;;;;;0.90;0.50;;;;;;;18.33;40.14;98163.03;1716107;83;21020;-68
2022/05/22 08:36:20;;;;;;;0.60;0.45;;;;;;;18.25;40.61;98164.30;1717972;83;20955;-68
2022/05/22 08:38:48;;;;;;;1.10;0.60;;;;;;;18.29;40.59;98167.31;1709828;83;20987;-68
2022/05/22 08:41:23;;;;;;;2.00;0.93;;;;;;;18.25;40.97;98164.85;1708046;83;21874;-69
2022/05/22 08:44:13;;;;;;;2.10;1.90;;;;;;;18.24;41.47;98168.59;1717233;83;25470;-68
2022/05/22 08:47:06;;;;;;;0.70;0.70;;;;;;;18.26;41.63;98178.58;1729418;81;20949;-68
2022/05/22 08:49:55;;;;;;;1.12;0.65;;;;;;;18.28;41.06;98171.05;1718384;83;21011;-69
2022/05/22 08:52:57;;;;;;;0.90;0.42;;;;;;;18.10;40.94;98172.19;1717469;83;21133;-67
2022/05/22 08:58:59;;;;;;;0.98;0.45;;;;;;;17.69;41.67;98182.93;1717892;83;21006;-67
2022/05/22 09:01:34;;;;;;;0.40;0.30;;;;;;;17.73;42.26;98187.27;1713025;83;20955;-69
2022/05/22 09:04:26;;;;;;;0.62;0.42;;;;;;;17.75;42.54;98183.27;1713440;83;21033;-69
2022/05/22 09:07:10;;;;;;;0.53;0.40;;;;;;;17.77;42.46;98185.72;1736653;81;21062;-69
2022/05/22 09:09:40;;;;;;;0.40;0.40;;;;;;;17.72;42.54;98191.03;1717082;81;21136;-66
2022/05/22 09:12:36;;;;;;;0.53;0.40;;;;;;;17.62;42.63;98194.39;1709523;83;21556;-67
2022/05/22 09:15:29;;;;;;;0.45;0.45;;;;;;;17.58;42.72;98189.20;1705900;83;21058;-67
2022/05/22 09:18:09;;;;;;;2.05;0.60;;;;;;;17.53;43.06;98199.89;1713498;83;21017;-68
2022/05/22 09:20:50;;;;;;;1.25;0.37;;;;;;;17.60;43.55;98189.77;1723388;82;20979;-67
2022/05/22 09:23:55;;;;;;;0.30;0.25;;;;;;;17.67;43.16;98193.65;1724587;82;21235;-70
2022/05/22 09:26:43;;;;;;;0.65;0.55;;;;;;;17.67;42.86;98197.68;1718894;83;20961;-68
2022/05/22 09:29:38;;;;;;;0.45;0.30;;;;;;;17.69;42.80;98200.94;1719244;83;21527;-70
2022/05/22 09:32:22;;;;;;;0.20;0.20;;;;;;;17.75;42.74;98199.95;1719113;83;21017;-67
2022/05/22 09:35:08;;;;;;;4.80;4.30;;;;;;;17.69;42.72;98199.59;1721389;83;20997;-67
2022/05/22 09:38:18;;;;;;;1.45;1.30;;;;;;;17.71;42.81;98206.88;1724604;83;44046;-66
2022/05/22 09:40:54;;;;;;;0.68;0.68;;;;;;;17.80;43.12;98204.89;1725382;81;20998;-69
2022/05/22 09:43:52;;;;;;;0.93;0.47;;;;;;;17.93;42.77;98214.48;1724838;82;21061;-69
2022/05/22 09:46:59;;;;;;;1.12;0.30;;;;;;;17.95;43.07;98216.38;1682485;84;21552;-66
2022/05/22 09:49:31;;;;;;;0.47;0.33;;;;;;;17.88;42.85;98207.12;1710700;83;21565;-68
2022/05/22 09:52:24;;;;;;;0.30;0.30;;;;;;;17.88;43.28;98221.13;1710426;83;21320;-69
2022/05/22 09:55:03;;;;;;;0.55;0.42;;;;;;;17.84;43.46;98228.05;1718756;83;21551;-68
2022/05/22 09:58:04;;;;;;;3.27;0.30;;;;;;;17.81;43.32;98230.70;1721174;82;20950;-69
2022/05/22 10:00:51;;;;;;;0.95;0.47;;;;;;;17.68;43.62;98226.19;1719143;83;21500;-68
2022/05/22 10:03:43;;;;;;;2.37;0.50;;;;;;;17.64;43.66;98225.06;1718009;82;21041;-67
2022/05/22 10:06:35;;;;;;;1.37;0.70;;;;;;;17.66;43.92;98229.13;1704754;83;21078;-67
2022/05/22 10:09:35;;;;;;;1.00;0.98;;;;;;;17.62;44.39;98241.98;1754280;81;20997;-68
2022/05/22 10:12:25;;;;;;;3.22;0.90;;;;;;;17.64;44.34;98240.67;1724705;82;20919;-68
2022/05/22 10:15:40;;;;;;;0.60;0.57;;;;;;;17.68;44.51;98239.63;1716204;83;21461;-68
2022/05/22 10:18:29;;;;;;;1.05;0.65;;;;;;;17.64;44.77;98241.20;1723580;82;20946;-68
2022/05/22 10:21:22;;;;;;;3.20;0.88;;;;;;;17.61;44.67;98241.16;1724127;82;21157;-67
2022/05/22 10:24:36;;;;;;;0.50;0.50;;;;;;;17.76;44.62;98245.95;1722916;82;20974;-67
2022/05/22 10:27:14;;;;;;;2.52;0.80;;;;;;;17.89;44.82;98242.92;1732813;81;21031;-68
2022/05/22 10:29:54;;;;;;;1.75;0.80;;;;;;;18.06;44.47;98246.42;1732192;81;21229;-68
2022/05/22 10:32:26;;;;;;;0.88;0.70;;;;;;;18.11;44.41;98242.45;1730697;82;21619;-70
2022/05/22 10:35:18;;;;;;;0.55;0.55;;;;;;;18.08;44.18;98244.81;1705373;81;21145;-69
2022/05/22 10:38:02;;;;;;;1.00;0.90;;;;;;;17.97;44.34;98250.58;1674425;84;20879;-71
2022/05/22 10:43:14;;;;;;;0.60;0.50;;;;;;;17.57;44.91;98258.82;1705376;82;20982;-70
2022/05/22 10:45:42;;;;;;;5.00;1.60;;;;;;;17.42;45.41;98264.45;1695166;83;20976;-71
2022/05/22 10:48:21;;;;;;;2.47;1.10;;;;;;;17.40;45.91;98266.56;1697747;84;21150;-72
2022/05/22 10:51:04;;;;;;;0.50;0.50;;;;;;;17.41;46.26;98264.17;1732643;82;21006;-68
2022/05/22 10:53:42;;;;;;;0.95;0.62;;;;;;;17.31;46.20;98268.86;1731100;82;21506;-70
2022/05/22 10:56:18;;;;;;;0.60;0.50;;;;;;;17.25;46.17;98263.91;1723043;83;21023;-70
2022/05/22 10:59:10;;;;;;;2.27;0.70;;;;;;;17.22;46.48;98261.70;1725458;83;21034;-72
2022/05/22 11:01:40;;;;;;;1.47;0.68;;;;;;;17.22;46.70;98258.20;1725218;83;21014;-70
2022/05/22 11:04:12;;;;;;;1.05;0.70;;;;;;;17.20;46.68;98269.20;1725000;83;20948;-70
2022/05/22 11:06:57;;;;;;;1.62;1.00;;;;;;;17.17;46.52;98272.89;1729634;82;21503;-71
2022/05/22 11:09:34;;;;;;;2.45;2.25;;;;;;;17.28;46.52;98265.30;1673225;84;21006;-69
2022/05/22 11:12:12;;;;;;;1.30;1.20;;;;;;;17.34;46.55;98275.06;1699416;84;21021;-73
2022/05/22 11:14:40;;;;;;;0.78;0.70;;;;;;;17.41;46.18;98278.44;1712918;83;21254;-72
2022/05/22 11:17:18;;;;;;;1.57;0.70;;;;;;;17.43;45.78;98272.80;1713005;83;20899;-72
2022/05/22 11:19:48;;;;;;;3.27;2.40;;;;;;;17.47;45.78;98268.59;1730054;83;20945;-71
2022/05/22 11:22:31;;;;;;;1.85;1.75;;;;;;;17.51;45.84;98267.85;1727893;81;21006;-70
2022/05/22 11:25:13;;;;;;;1.65;0.95;;;;;;;17.55;46.13;98277.60;1728038;81;21133;-72
2022/05/22 11:28:14;;;;;;;1.15;0.68;;;;;;;17.66;46.27;98277.55;1716466;83;21637;-71
2022/05/22 11:31:22;;;;;;;1.10;1.00;;;;;;;17.75;45.85;98277.41;1719356;83;20930;-70
2022/05/22 11:34:18;;;;;;;0.68;0.60;;;;;;;17.82;45.51;98268.66;1710002;83;21003;-71
2022/05/22 11:37:13;;;;;;;2.65;0.57;;;;;;;17.79;45.22;98281.77;1719395;83;20900;-69
2022/05/22 11:39:57;;;;;;;1.37;0.80;;;;;;;17.71;46.02;98278.14;1720334;83;21009;-68
2022/05/22 11:42:33;;;;;;;1.85;1.70;;;;;;;17.76;46.11;98281.73;1715456;83;21250;-71
2022/05/22 11:45:21;;;;;;;2.17;1.98;;;;;;;17.86;46.05;98278.37;1727391;81;20935;-70
2022/05/22 11:48:16;;;;;;;1.75;1.62;;;;;;;17.97;46.15;98282.05;1726288;82;20961;-70
2022/05/22 11:51:20;;;;;;;1.45;0.80;;;;;;;18.05;45.86;98274.38;1718956;83;21022;-69
2022/05/22 11:54:08;;;;;;;1.57;0.60;;;;;;;18.06;45.68;98267.95;1718903;83;21466;-70
2022/05/22 11:56:57;;;;;;;0.50;0.40;;;;;;;17.99;45.84;98275.91;1719230;83;21771;-70
2022/05/22 11:59:56;;;;;;;1.05;0.45;;;;;;;17.92;45.71;98282.79;1727545;83;20955;-69
2022/05/22 12:02:41;;;;;;;2.08;1.65;;;;;;;17.94;45.68;98279.31;1711555;83;21769;-69
2022/05/22 12:05:38;;;;;;;2.58;0.90;;;;;;;17.90;45.79;98275.50;1716556;83;21591;-72
2022/05/22 12:08:40;;;;;;;0.85;0.60;;;;;;;17.97;45.74;98276.14;1716882;83;20939;-69
2022/05/22 12:11:45;;;;;;;0.90;0.62;;;;;;;18.07;45.71;98282.22;1719575;83;21820;-72
2022/05/22 12:14:17;;;;;;;2.27;0.60;;;;;;;18.09;45.42;98284.95;1719511;82;21067;-70
2022/05/22 12:17:01;;;;;;;0.50;0.50;;;;;;;18.06;45.55;98280.58;1718028;83;21460;-68
2022/05/22 12:19:52;;;;;;;0.75;0.60;;;;;;;18.08;45.53;98284.66;1711332;83;20991;-69
2022/05/22 12:25:17;;;;;;;0.40;0.40;;;;;;;18.18;45.88;98282.10;1706759;83;21206;-71
2022/05/22 12:27:45;;;;;;;0.80;0.78;;;;;;;18.19;45.92;98293.16;1708591;83;28650;-72